Terminal Aerodrome Forecast
Issued by NWS

Home | Current Version | Previous Version | Text Only | Print | Product List | Glossary On
Versions: 1 2 3 4 5 6 7 8 9 10 11 12 13 14 15 16 17 18 19 20 21 22 23 24
000
FTUS41 KPBZ 271500 AAC
TAFAGC
TAF AMD
KAGC 271519Z 2715/2812 33006KT 3SM -SHSN BKN010
      TEMPO 2715/2716 1 1/2SM -SHSN BKN009
     FM271700 33010KT P6SM BKN015
     FM280400 34008KT P6SM BKN025=

USA.gov is the U.S. government's official web portal to all federal, state and local government web resources and services.